createdAt,value
2018-11-20T00:12:28.303Z,58.80
2018-11-20T00:32:26.248Z,65.95
2018-11-20T00:52:24.076Z,57.45
2018-11-20T01:33:36.438Z,64.50
2018-11-20T01:53:48.576Z,69.45
2018-11-20T02:13:52.460Z,69.72
2018-11-20T02:33:48.284Z,66.65
2018-11-20T02:53:50.763Z,70.03
2018-11-20T03:13:53.152Z,63.30
2018-11-20T03:33:52.033Z,69.55
2018-11-20T03:53:50.956Z,72.97
2018-11-20T04:13:52.781Z,76.28
2018-11-20T04:33:53.546Z,64.70
2018-11-20T05:36:18.068Z,57.78
2018-11-20T05:56:15.512Z,53.55
2018-11-20T06:17:10.911Z,46.10
2018-11-20T06:37:14.839Z,45.35
2018-11-20T06:58:07.304Z,40.73
2018-11-20T07:17:58.160Z,23.45
2018-11-20T07:37:56.925Z,23.18
2018-11-20T07:58:00.952Z,19.80
2018-11-20T08:39:22.382Z,19.15
2018-11-20T08:59:20.240Z,19.52
2018-11-20T09:40:58.089Z,22.30
2018-11-20T10:00:50.892Z,21.42
2018-11-20T10:20:51.733Z,19.75
2018-11-20T11:02:11.657Z,20.70
2018-11-20T11:22:24.369Z,18.57
2018-11-20T11:42:23.170Z,23.47
2018-11-20T13:32:01.631Z,18.37
2018-11-20T13:38:01.863Z,19.90
2018-11-20T13:44:35.122Z,19.87
2018-11-20T13:50:36.298Z,21.27
2018-11-20T13:57:14.264Z,21.25
2018-11-20T14:03:50.211Z,22.02
2018-11-20T14:10:02.877Z,22.40
2018-11-20T14:16:41.666Z,19.50
2018-11-20T14:23:08.641Z,23.42
2018-11-20T14:29:24.380Z,21.37
2018-11-20T14:35:23.904Z,20.27
2018-11-20T14:41:54.799Z,16.70
2018-11-20T14:51:56.780Z,17.82
2018-11-20T14:58:32.525Z,15.83
2018-11-20T15:04:52.464Z,17.00
2018-11-20T15:11:12.169Z,19.35
2018-11-20T15:17:30.958Z,15.23
2018-11-20T15:23:32.858Z,14.30
2018-11-20T15:33:22.379Z,16.85
2018-11-20T15:39:49.296Z,17.60
2018-11-20T15:45:55.164Z,17.42
2018-11-20T15:52:17.681Z,23.57
2018-11-20T15:58:50.471Z,28.47
2018-11-20T16:05:22.461Z,30.50
2018-11-20T16:11:54.263Z,27.22
2018-11-20T16:18:26.914Z,27.35
2018-11-20T16:25:04.164Z,27.90
2018-11-20T16:31:35.965Z,23.85
2018-11-20T16:38:06.887Z,25.27
2018-11-20T16:44:41.774Z,25.45
2018-11-20T16:51:10.941Z,21.82
2018-11-20T16:57:48.618Z,23.38
2018-11-20T17:04:04.219Z,18.50
2018-11-20T17:10:31.084Z,17.42
2018-11-20T17:16:52.893Z,15.48
2018-11-20T17:23:12.648Z,16.85
2018-11-20T17:29:53.598Z,13.28
2018-11-20T17:36:12.345Z,15.00
2018-11-20T17:42:45.093Z,12.58
2018-11-20T17:49:00.698Z,12.60
2018-11-20T17:55:37.947Z,11.22
2018-11-20T18:01:56.629Z,12.63
2018-11-20T18:08:14.485Z,12.33
2018-11-20T18:14:34.191Z,11.40
2018-11-20T18:20:53.540Z,12.10
2018-11-20T18:27:23.022Z,12.80
2018-11-20T18:37:14.601Z,11.10
2018-11-20T18:43:34.370Z,11.15
2018-11-20T18:50:11.296Z,12.58
2018-11-20T18:56:42.253Z,12.30
2018-11-20T19:03:16.032Z,11.85
2018-11-20T19:09:36.802Z,11.43
2018-11-20T19:15:54.917Z,12.63
2018-11-20T19:22:08.272Z,16.90
2018-11-20T19:28:32.077Z,15.20
2018-11-20T19:38:18.894Z,16.87
2018-11-20T19:44:49.756Z,14.15
2018-11-20T19:51:13.556Z,10.68
2018-11-20T19:57:43.698Z,10.60
2018-11-20T20:07:44.366Z,10.95
2018-11-20T20:14:14.226Z,10.90
2018-11-20T20:20:20.950Z,9.68
2018-11-20T20:26:55.772Z,9.40
2018-11-20T20:33:24.624Z,12.55
2018-11-20T20:39:42.320Z,10.75
2018-11-20T20:46:13.970Z,8.95
2018-11-20T20:52:10.730Z,9.98
2018-11-20T20:58:31.592Z,8.20
2018-11-20T21:04:40.250Z,10.82
2018-11-20T21:10:58.936Z,9.80
2018-11-20T21:17:16.782Z,9.50
2018-11-20T21:23:31.353Z,8.25
2018-11-20T21:30:08.311Z,9.13
2018-11-20T21:40:08.539Z,9.30
2018-11-20T21:46:31.106Z,10.20
2018-11-20T21:53:01.919Z,9.33
2018-11-20T21:59:41.879Z,10.18
2018-11-20T22:06:01.405Z,9.23
2018-11-20T22:12:21.452Z,10.00
2018-11-20T22:18:43.144Z,10.20
2018-11-20T22:24:54.859Z,8.33
2018-11-20T22:31:14.475Z,9.55
2018-11-20T22:37:54.544Z,10.30
2018-11-20T22:44:02.275Z,9.55
2018-11-20T22:50:24.002Z,9.80
2018-11-20T22:56:56.852Z,9.50
2018-11-20T23:03:13.627Z,9.48
2018-11-20T23:09:15.454Z,9.28
2018-11-20T23:15:16.748Z,7.72
2018-11-20T23:21:17.312Z,7.22
2018-11-20T23:27:16.871Z,7.15
2018-11-20T23:33:19.773Z,6.70
2018-11-20T23:39:02.865Z,7.53
2018-11-20T23:44:39.201Z,7.08
2018-11-20T23:50:39.772Z,6.42
2018-11-20T23:56:39.330Z,7.65
